Terminal Aerodrome Forecast
Issued by NWS

Home | Current Version | Previous Version | Text Only | Print | Product List | Glossary On
Versions: 1 2 3 4 5 6 7 8 9 10 11 12
000
FTUS44 KBMX 121140
TAFTCL
TAF
KTCL 121140Z 1212/1312 30003KT P6SM FEW250
     FM121500 32012G18KT P6SM SCT050
     FM122300 32007KT P6SM SKC
     FM130500 00000KT P6SM SKC=

USA.gov is the U.S. government's official web portal to all federal, state and local government web resources and services.